sensor_id;sensor_type;location;lat;lon;timestamp;P1;durP1;ratioP1;P2;durP2;ratioP2
54683;SDS011;40582;53.100;6.686;2022-08-30T00:00:40;6.00;;;2.60;;
54683;SDS011;40582;53.100;6.686;2022-08-30T00:03:24;5.55;;;2.90;;
54683;SDS011;40582;53.100;6.686;2022-08-30T00:05:51;10.68;;;2.97;;
54683;SDS011;40582;53.100;6.686;2022-08-30T00:08:18;3.95;;;2.65;;
54683;SDS011;40582;53.100;6.686;2022-08-30T00:10:44;3.50;;;2.70;;
54683;SDS011;40582;53.100;6.686;2022-08-30T00:13:11;4.88;;;2.90;;
54683;SDS011;40582;53.100;6.686;2022-08-30T00:15:38;6.00;;;2.80;;
54683;SDS011;40582;53.100;6.686;2022-08-30T00:18:05;8.23;;;2.80;;
54683;SDS011;40582;53.100;6.686;2022-08-30T00:20:31;7.38;;;2.53;;
54683;SDS011;40582;53.100;6.686;2022-08-30T00:22:58;7.18;;;3.10;;
54683;SDS011;40582;53.100;6.686;2022-08-30T00:25:24;5.90;;;2.70;;
54683;SDS011;40582;53.100;6.686;2022-08-30T00:27:50;3.85;;;2.40;;
54683;SDS011;40582;53.100;6.686;2022-08-30T00:30:16;8.93;;;3.03;;
54683;SDS011;40582;53.100;6.686;2022-08-30T00:32:42;6.90;;;2.47;;
54683;SDS011;40582;53.100;6.686;2022-08-30T00:35:09;8.05;;;2.72;;
54683;SDS011;40582;53.100;6.686;2022-08-30T00:37:37;4.75;;;2.85;;
54683;SDS011;40582;53.100;6.686;2022-08-30T00:40:03;4.57;;;2.50;;
54683;SDS011;40582;53.100;6.686;2022-08-30T00:42:30;8.57;;;2.83;;
54683;SDS011;40582;53.100;6.686;2022-08-30T00:44:57;5.45;;;2.90;;
54683;SDS011;40582;53.100;6.686;2022-08-30T00:47:23;4.75;;;2.60;;
54683;SDS011;40582;53.100;6.686;2022-08-30T00:49:50;6.03;;;2.55;;
54683;SDS011;40582;53.100;6.686;2022-08-30T00:52:19;6.22;;;3.13;;
54683;SDS011;40582;53.100;6.686;2022-08-30T00:54:47;7.03;;;3.20;;
54683;SDS011;40582;53.100;6.686;2022-08-30T00:57:15;6.22;;;3.20;;
54683;SDS011;40582;53.100;6.686;2022-08-30T00:59:45;6.78;;;2.75;;
54683;SDS011;40582;53.100;6.686;2022-08-30T01:02:13;7.82;;;3.10;;
54683;SDS011;40582;53.100;6.686;2022-08-30T01:04:42;6.32;;;2.97;;
54683;SDS011;40582;53.100;6.686;2022-08-30T01:07:09;4.25;;;3.10;;
54683;SDS011;40582;53.100;6.686;2022-08-30T01:09:35;5.45;;;3.50;;
54683;SDS011;40582;53.100;6.686;2022-08-30T01:12:01;6.45;;;3.05;;
54683;SDS011;40582;53.100;6.686;2022-08-30T01:14:28;6.30;;;3.35;;
54683;SDS011;40582;53.100;6.686;2022-08-30T01:16:57;6.78;;;3.78;;
54683;SDS011;40582;53.100;6.686;2022-08-30T01:22:41;6.53;;;3.80;;
54683;SDS011;40582;53.100;6.686;2022-08-30T01:25:07;3.65;;;3.08;;
54683;SDS011;40582;53.100;6.686;2022-08-30T01:27:34;11.50;;;3.53;;
54683;SDS011;40582;53.100;6.686;2022-08-30T01:30:06;6.18;;;3.35;;
54683;SDS011;40582;53.100;6.686;2022-08-30T01:32:32;6.20;;;3.78;;
54683;SDS011;40582;53.100;6.686;2022-08-30T01:35:05;6.20;;;3.90;;
54683;SDS011;40582;53.100;6.686;2022-08-30T01:37:32;7.80;;;3.72;;
54683;SDS011;40582;53.100;6.686;2022-08-30T01:39:59;8.00;;;4.00;;
54683;SDS011;40582;53.100;6.686;2022-08-30T01:42:25;7.10;;;3.75;;
54683;SDS011;40582;53.100;6.686;2022-08-30T01:44:52;7.22;;;4.10;;
54683;SDS011;40582;53.100;6.686;2022-08-30T01:47:18;11.07;;;3.95;;
54683;SDS011;40582;53.100;6.686;2022-08-30T01:49:45;5.05;;;3.53;;
54683;SDS011;40582;53.100;6.686;2022-08-30T01:52:12;7.68;;;4.50;;
54683;SDS011;40582;53.100;6.686;2022-08-30T01:54:40;7.75;;;3.75;;
54683;SDS011;40582;53.100;6.686;2022-08-30T01:57:08;5.78;;;4.22;;
54683;SDS011;40582;53.100;6.686;2022-08-30T01:59:36;10.10;;;3.95;;
54683;SDS011;40582;53.100;6.686;2022-08-30T02:02:03;8.07;;;3.72;;
54683;SDS011;40582;53.100;6.686;2022-08-30T02:04:29;5.03;;;4.20;;
54683;SDS011;40582;53.100;6.686;2022-08-30T02:06:55;6.82;;;3.60;;
54683;SDS011;40582;53.100;6.686;2022-08-30T02:09:21;5.45;;;3.80;;
54683;SDS011;40582;53.100;6.686;2022-08-30T02:11:46;6.78;;;3.72;;
54683;SDS011;40582;53.100;6.686;2022-08-30T02:14:13;6.95;;;3.72;;
54683;SDS011;40582;53.100;6.686;2022-08-30T02:16:39;9.45;;;4.03;;
54683;SDS011;40582;53.100;6.686;2022-08-30T02:19:05;10.77;;;4.00;;
54683;SDS011;40582;53.100;6.686;2022-08-30T02:21:31;5.88;;;3.63;;
54683;SDS011;40582;53.100;6.686;2022-08-30T02:23:57;6.35;;;3.60;;
54683;SDS011;40582;53.100;6.686;2022-08-30T02:26:23;4.72;;;3.60;;
54683;SDS011;40582;53.100;6.686;2022-08-30T02:28:49;5.50;;;3.65;;
54683;SDS011;40582;53.100;6.686;2022-08-30T02:31:15;7.05;;;3.88;;
54683;SDS011;40582;53.100;6.686;2022-08-30T02:33:41;8.88;;;3.60;;
54683;SDS011;40582;53.100;6.686;2022-08-30T02:36:07;6.15;;;3.55;;
54683;SDS011;40582;53.100;6.686;2022-08-30T02:38:33;6.10;;;3.67;;
54683;SDS011;40582;53.100;6.686;2022-08-30T02:40:59;8.25;;;3.90;;
54683;SDS011;40582;53.100;6.686;2022-08-30T02:43:25;8.23;;;4.20;;
54683;SDS011;40582;53.100;6.686;2022-08-30T02:45:51;10.02;;;3.88;;
54683;SDS011;40582;53.100;6.686;2022-08-30T02:48:17;9.38;;;3.97;;
54683;SDS011;40582;53.100;6.686;2022-08-30T02:50:44;8.27;;;4.20;;
54683;SDS011;40582;53.100;6.686;2022-08-30T02:53:12;8.63;;;4.15;;
54683;SDS011;40582;53.100;6.686;2022-08-30T02:55:38;8.23;;;4.53;;
54683;SDS011;40582;53.100;6.686;2022-08-30T02:58:04;7.47;;;3.65;;
54683;SDS011;40582;53.100;6.686;2022-08-30T03:00:30;4.55;;;3.45;;
54683;SDS011;40582;53.100;6.686;2022-08-30T03:02:56;6.85;;;3.55;;
54683;SDS011;40582;53.100;6.686;2022-08-30T03:05:22;7.60;;;3.72;;
54683;SDS011;40582;53.100;6.686;2022-08-30T03:07:48;9.07;;;3.63;;
54683;SDS011;40582;53.100;6.686;2022-08-30T03:10:14;8.93;;;3.72;;
54683;SDS011;40582;53.100;6.686;2022-08-30T03:12:40;5.85;;;3.38;;
54683;SDS011;40582;53.100;6.686;2022-08-30T03:15:07;7.78;;;3.72;;
54683;SDS011;40582;53.100;6.686;2022-08-30T03:17:36;7.43;;;3.53;;
54683;SDS011;40582;53.100;6.686;2022-08-30T03:20:02;5.90;;;3.60;;
54683;SDS011;40582;53.100;6.686;2022-08-30T03:22:29;6.88;;;4.20;;
54683;SDS011;40582;53.100;6.686;2022-08-30T03:24:54;8.63;;;3.70;;
54683;SDS011;40582;53.100;6.686;2022-08-30T03:27:25;7.82;;;4.22;;
54683;SDS011;40582;53.100;6.686;2022-08-30T03:29:52;7.13;;;3.78;;
54683;SDS011;40582;53.100;6.686;2022-08-30T03:32:17;9.48;;;4.03;;
54683;SDS011;40582;53.100;6.686;2022-08-30T03:34:44;6.07;;;3.60;;
54683;SDS011;40582;53.100;6.686;2022-08-30T03:37:10;9.02;;;3.40;;
54683;SDS011;40582;53.100;6.686;2022-08-30T03:39:36;6.55;;;3.60;;
54683;SDS011;40582;53.100;6.686;2022-08-30T03:42:02;4.20;;;3.10;;
54683;SDS011;40582;53.100;6.686;2022-08-30T03:44:27;6.97;;;4.18;;
54683;SDS011;40582;53.100;6.686;2022-08-30T03:46:53;7.40;;;3.83;;
54683;SDS011;40582;53.100;6.686;2022-08-30T03:49:19;8.00;;;3.78;;
54683;SDS011;40582;53.100;6.686;2022-08-30T03:51:45;7.70;;;3.55;;
54683;SDS011;40582;53.100;6.686;2022-08-30T03:54:11;4.75;;;3.10;;
54683;SDS011;40582;53.100;6.686;2022-08-30T03:56:37;4.45;;;3.35;;
54683;SDS011;40582;53.100;6.686;2022-08-30T03:59:03;9.57;;;3.80;;
54683;SDS011;40582;53.100;6.686;2022-08-30T04:01:29;8.00;;;3.50;;
54683;SDS011;40582;53.100;6.686;2022-08-30T04:03:55;4.13;;;3.40;;
54683;SDS011;40582;53.100;6.686;2022-08-30T04:06:21;8.15;;;3.63;;
54683;SDS011;40582;53.100;6.686;2022-08-30T04:08:47;5.22;;;3.40;;
54683;SDS011;40582;53.100;6.686;2022-08-30T04:11:13;7.30;;;3.33;;
54683;SDS011;40582;53.100;6.686;2022-08-30T04:13:40;6.32;;;3.80;;
54683;SDS011;40582;53.100;6.686;2022-08-30T04:16:06;5.25;;;3.35;;
54683;SDS011;40582;53.100;6.686;2022-08-30T04:18:32;7.20;;;3.40;;
54683;SDS011;40582;53.100;6.686;2022-08-30T04:21:00;5.45;;;3.50;;
54683;SDS011;40582;53.100;6.686;2022-08-30T04:23:27;7.32;;;3.67;;
54683;SDS011;40582;53.100;6.686;2022-08-30T04:25:52;5.65;;;3.42;;
54683;SDS011;40582;53.100;6.686;2022-08-30T04:28:19;7.47;;;4.13;;
54683;SDS011;40582;53.100;6.686;2022-08-30T04:30:45;10.18;;;3.92;;
54683;SDS011;40582;53.100;6.686;2022-08-30T04:33:11;4.57;;;3.63;;
54683;SDS011;40582;53.100;6.686;2022-08-30T04:35:42;6.35;;;3.53;;
54683;SDS011;40582;53.100;6.686;2022-08-30T04:38:10;6.70;;;3.70;;
54683;SDS011;40582;53.100;6.686;2022-08-30T04:40:37;5.55;;;3.92;;
54683;SDS011;40582;53.100;6.686;2022-08-30T04:43:06;5.03;;;3.70;;
54683;SDS011;40582;53.100;6.686;2022-08-30T04:45:31;7.60;;;3.75;;
54683;SDS011;40582;53.100;6.686;2022-08-30T04:47:57;6.63;;;3.78;;
54683;SDS011;40582;53.100;6.686;2022-08-30T04:50:23;6.20;;;3.67;;
54683;SDS011;40582;53.100;6.686;2022-08-30T04:52:49;5.15;;;3.35;;
54683;SDS011;40582;53.100;6.686;2022-08-30T04:55:14;6.10;;;3.45;;
54683;SDS011;40582;53.100;6.686;2022-08-30T04:57:40;5.07;;;3.63;;
54683;SDS011;40582;53.100;6.686;2022-08-30T05:00:08;4.10;;;3.70;;
54683;SDS011;40582;53.100;6.686;2022-08-30T05:02:36;4.45;;;3.47;;
54683;SDS011;40582;53.100;6.686;2022-08-30T05:05:04;8.02;;;3.55;;
54683;SDS011;40582;53.100;6.686;2022-08-30T05:07:48;5.15;;;3.58;;
54683;SDS011;40582;53.100;6.686;2022-08-30T05:10:14;6.18;;;3.50;;
54683;SDS011;40582;53.100;6.686;2022-08-30T05:12:40;7.57;;;3.50;;
54683;SDS011;40582;53.100;6.686;2022-08-30T05:15:07;6.25;;;3.72;;
54683;SDS011;40582;53.100;6.686;2022-08-30T05:17:35;12.18;;;3.60;;
54683;SDS011;40582;53.100;6.686;2022-08-30T05:20:02;8.70;;;3.60;;
54683;SDS011;40582;53.100;6.686;2022-08-30T05:22:29;6.22;;;4.03;;
54683;SDS011;40582;53.100;6.686;2022-08-30T05:24:54;7.20;;;3.55;;
54683;SDS011;40582;53.100;6.686;2022-08-30T05:27:20;5.72;;;3.33;;
54683;SDS011;40582;53.100;6.686;2022-08-30T05:29:46;12.68;;;4.15;;
54683;SDS011;40582;53.100;6.686;2022-08-30T05:32:11;6.35;;;3.35;;
54683;SDS011;40582;53.100;6.686;2022-08-30T05:34:37;4.75;;;3.50;;
54683;SDS011;40582;53.100;6.686;2022-08-30T05:37:03;6.22;;;3.78;;
54683;SDS011;40582;53.100;6.686;2022-08-30T05:39:28;5.18;;;3.63;;
54683;SDS011;40582;53.100;6.686;2022-08-30T05:41:55;9.00;;;4.00;;
54683;SDS011;40582;53.100;6.686;2022-08-30T05:44:21;4.95;;;3.05;;
54683;SDS011;40582;53.100;6.686;2022-08-30T05:46:47;6.90;;;3.85;;
54683;SDS011;40582;53.100;6.686;2022-08-30T05:49:13;7.35;;;3.40;;
54683;SDS011;40582;53.100;6.686;2022-08-30T05:51:39;5.50;;;3.22;;
54683;SDS011;40582;53.100;6.686;2022-08-30T05:54:05;7.70;;;3.70;;
54683;SDS011;40582;53.100;6.686;2022-08-30T05:56:36;6.72;;;3.20;;
54683;SDS011;40582;53.100;6.686;2022-08-30T05:59:04;14.15;;;4.10;;
54683;SDS011;40582;53.100;6.686;2022-08-30T06:01:32;28.77;;;4.60;;
54683;SDS011;40582;53.100;6.686;2022-08-30T06:04:00;16.88;;;3.92;;
54683;SDS011;40582;53.100;6.686;2022-08-30T06:06:28;10.07;;;3.50;;
54683;SDS011;40582;53.100;6.686;2022-08-30T06:08:54;6.78;;;3.95;;
54683;SDS011;40582;53.100;6.686;2022-08-30T06:11:21;9.85;;;3.72;;
54683;SDS011;40582;53.100;6.686;2022-08-30T06:13:49;9.88;;;3.80;;
54683;SDS011;40582;53.100;6.686;2022-08-30T06:16:16;8.35;;;3.28;;
54683;SDS011;40582;53.100;6.686;2022-08-30T06:18:43;6.47;;;3.42;;
54683;SDS011;40582;53.100;6.686;2022-08-30T06:21:43;6.53;;;3.60;;
54683;SDS011;40582;53.100;6.686;2022-08-30T06:24:02;7.53;;;3.90;;
54683;SDS011;40582;53.100;6.686;2022-08-30T06:26:30;8.73;;;3.78;;
54683;SDS011;40582;53.100;6.686;2022-08-30T06:28:56;8.02;;;3.63;;
54683;SDS011;40582;53.100;6.686;2022-08-30T06:31:23;8.57;;;3.63;;
54683;SDS011;40582;53.100;6.686;2022-08-30T06:33:50;8.10;;;3.30;;
54683;SDS011;40582;53.100;6.686;2022-08-30T06:36:21;7.38;;;3.75;;
54683;SDS011;40582;53.100;6.686;2022-08-30T06:38:49;9.75;;;3.70;;
54683;SDS011;40582;53.100;6.686;2022-08-30T06:41:17;4.22;;;2.88;;
54683;SDS011;40582;53.100;6.686;2022-08-30T06:43:45;8.07;;;3.63;;
54683;SDS011;40582;53.100;6.686;2022-08-30T06:46:12;13.00;;;3.60;;
54683;SDS011;40582;53.100;6.686;2022-08-30T06:48:40;13.35;;;3.70;;
54683;SDS011;40582;53.100;6.686;2022-08-30T06:51:06;8.93;;;3.75;;
54683;SDS011;40582;53.100;6.686;2022-08-30T06:53:32;6.22;;;3.35;;
54683;SDS011;40582;53.100;6.686;2022-08-30T06:55:59;6.97;;;3.25;;
54683;SDS011;40582;53.100;6.686;2022-08-30T06:58:31;15.32;;;4.65;;
54683;SDS011;40582;53.100;6.686;2022-08-30T07:00:58;4.88;;;3.05;;
54683;SDS011;40582;53.100;6.686;2022-08-30T07:03:24;5.53;;;3.10;;
54683;SDS011;40582;53.100;6.686;2022-08-30T07:05:53;6.45;;;3.10;;
54683;SDS011;40582;53.100;6.686;2022-08-30T07:08:19;7.10;;;2.70;;
54683;SDS011;40582;53.100;6.686;2022-08-30T07:10:47;4.72;;;2.67;;
54683;SDS011;40582;53.100;6.686;2022-08-30T07:13:13;9.05;;;2.47;;
54683;SDS011;40582;53.100;6.686;2022-08-30T07:15:41;9.55;;;2.70;;
54683;SDS011;40582;53.100;6.686;2022-08-30T07:18:08;5.45;;;2.60;;
54683;SDS011;40582;53.100;6.686;2022-08-30T07:20:53;6.68;;;2.28;;
54683;SDS011;40582;53.100;6.686;2022-08-30T07:23:20;5.53;;;2.08;;
54683;SDS011;40582;53.100;6.686;2022-08-30T07:25:46;6.88;;;2.20;;
54683;SDS011;40582;53.100;6.686;2022-08-30T07:28:11;5.97;;;2.10;;
54683;SDS011;40582;53.100;6.686;2022-08-30T07:30:39;6.15;;;1.90;;
54683;SDS011;40582;53.100;6.686;2022-08-30T07:33:05;11.30;;;1.90;;
54683;SDS011;40582;53.100;6.686;2022-08-30T07:35:32;3.70;;;2.00;;
54683;SDS011;40582;53.100;6.686;2022-08-30T07:37:57;3.53;;;1.83;;
54683;SDS011;40582;53.100;6.686;2022-08-30T07:40:24;5.40;;;1.77;;
54683;SDS011;40582;53.100;6.686;2022-08-30T07:42:50;9.48;;;1.95;;
54683;SDS011;40582;53.100;6.686;2022-08-30T07:45:16;2.88;;;1.80;;
54683;SDS011;40582;53.100;6.686;2022-08-30T07:47:42;4.13;;;1.90;;
54683;SDS011;40582;53.100;6.686;2022-08-30T07:50:09;3.28;;;1.67;;
54683;SDS011;40582;53.100;6.686;2022-08-30T07:52:34;6.32;;;1.42;;
54683;SDS011;40582;53.100;6.686;2022-08-30T07:55:00;10.20;;;1.58;;
54683;SDS011;40582;53.100;6.686;2022-08-30T07:57:27;3.20;;;1.65;;
54683;SDS011;40582;53.100;6.686;2022-08-30T07:59:55;5.10;;;1.90;;
54683;SDS011;40582;53.100;6.686;2022-08-30T08:02:21;3.70;;;1.80;;
54683;SDS011;40582;53.100;6.686;2022-08-30T08:04:46;5.05;;;1.88;;
54683;SDS011;40582;53.100;6.686;2022-08-30T08:07:12;2.53;;;1.70;;
54683;SDS011;40582;53.100;6.686;2022-08-30T08:09:38;5.57;;;1.73;;
54683;SDS011;40582;53.100;6.686;2022-08-30T08:12:04;7.35;;;1.67;;
54683;SDS011;40582;53.100;6.686;2022-08-30T08:14:31;6.05;;;1.38;;
54683;SDS011;40582;53.100;6.686;2022-08-30T08:16:57;3.72;;;1.52;;
54683;SDS011;40582;53.100;6.686;2022-08-30T08:19:23;3.67;;;1.50;;
54683;SDS011;40582;53.100;6.686;2022-08-30T08:21:49;4.40;;;1.70;;
54683;SDS011;40582;53.100;6.686;2022-08-30T08:24:20;4.57;;;1.52;;
54683;SDS011;40582;53.100;6.686;2022-08-30T08:26:50;3.80;;;1.60;;
54683;SDS011;40582;53.100;6.686;2022-08-30T08:29:16;5.75;;;1.70;;
54683;SDS011;40582;53.100;6.686;2022-08-30T08:31:41;2.78;;;1.40;;
54683;SDS011;40582;53.100;6.686;2022-08-30T08:34:08;4.13;;;1.50;;
54683;SDS011;40582;53.100;6.686;2022-08-30T08:36:35;2.72;;;1.50;;
54683;SDS011;40582;53.100;6.686;2022-08-30T08:39:01;6.38;;;1.63;;
54683;SDS011;40582;53.100;6.686;2022-08-30T08:41:38;4.50;;;1.80;;
54683;SDS011;40582;53.100;6.686;2022-08-30T08:44:34;2.28;;;1.40;;
54683;SDS011;40582;53.100;6.686;2022-08-30T08:49:54;2.95;;;1.60;;
54683;SDS011;40582;53.100;6.686;2022-08-30T08:52:26;4.32;;;1.65;;
54683;SDS011;40582;53.100;6.686;2022-08-30T08:55:16;4.40;;;1.70;;
54683;SDS011;40582;53.100;6.686;2022-08-30T08:57:44;2.40;;;1.30;;
54683;SDS011;40582;53.100;6.686;2022-08-30T09:00:11;2.03;;;1.30;;
54683;SDS011;40582;53.100;6.686;2022-08-30T09:02:39;12.38;;;2.72;;
54683;SDS011;40582;53.100;6.686;2022-08-30T09:05:10;16.38;;;1.65;;
54683;SDS011;40582;53.100;6.686;2022-08-30T09:07:42;4.60;;;1.52;;
54683;SDS011;40582;53.100;6.686;2022-08-30T09:10:16;9.10;;;1.77;;
54683;SDS011;40582;53.100;6.686;2022-08-30T09:12:42;2.58;;;1.13;;
54683;SDS011;40582;53.100;6.686;2022-08-30T09:17:49;4.90;;;1.52;;
54683;SDS011;40582;53.100;6.686;2022-08-30T09:20:36;4.07;;;1.67;;
54683;SDS011;40582;53.100;6.686;2022-08-30T09:25:56;8.18;;;1.63;;
54683;SDS011;40582;53.100;6.686;2022-08-30T09:28:32;2.60;;;1.52;;
54683;SDS011;40582;53.100;6.686;2022-08-30T09:31:17;2.03;;;1.20;;
54683;SDS011;40582;53.100;6.686;2022-08-30T09:33:53;4.43;;;1.67;;
54683;SDS011;40582;53.100;6.686;2022-08-30T09:36:21;4.63;;;1.65;;
54683;SDS011;40582;53.100;6.686;2022-08-30T09:38:57;6.10;;;1.70;;
54683;SDS011;40582;53.100;6.686;2022-08-30T09:46:42;3.50;;;1.40;;
54683;SDS011;40582;53.100;6.686;2022-08-30T09:49:41;3.13;;;1.40;;
54683;SDS011;40582;53.100;6.686;2022-08-30T09:55:14;7.30;;;1.48;;
54683;SDS011;40582;53.100;6.686;2022-08-30T10:00:27;4.38;;;1.30;;
54683;SDS011;40582;53.100;6.686;2022-08-30T10:03:02;11.75;;;1.50;;
54683;SDS011;40582;53.100;6.686;2022-08-30T10:08:43;2.38;;;1.30;;
54683;SDS011;40582;53.100;6.686;2022-08-30T10:11:19;7.03;;;1.63;;
54683;SDS011;40582;53.100;6.686;2022-08-30T10:20:00;3.22;;;1.48;;
54683;SDS011;40582;53.100;6.686;2022-08-30T10:22:46;7.15;;;3.65;;
54683;SDS011;40582;53.100;6.686;2022-08-30T10:25:14;4.22;;;1.58;;
54683;SDS011;40582;53.100;6.686;2022-08-30T10:27:55;3.97;;;1.63;;
54683;SDS011;40582;53.100;6.686;2022-08-30T10:30:27;6.18;;;1.30;;
54683;SDS011;40582;53.100;6.686;2022-08-30T10:33:00;6.30;;;1.60;;
54683;SDS011;40582;53.100;6.686;2022-08-30T10:36:09;5.13;;;1.60;;
54683;SDS011;40582;53.100;6.686;2022-08-30T10:38:21;2.95;;;1.48;;
54683;SDS011;40582;53.100;6.686;2022-08-30T10:41:19;2.33;;;1.42;;
54683;SDS011;40582;53.100;6.686;2022-08-30T10:44:02;3.08;;;1.40;;
54683;SDS011;40582;53.100;6.686;2022-08-30T10:49:26;4.35;;;1.65;;
54683;SDS011;40582;53.100;6.686;2022-08-30T10:51:59;6.82;;;1.50;;
54683;SDS011;40582;53.100;6.686;2022-08-30T10:54:46;3.55;;;1.45;;
54683;SDS011;40582;53.100;6.686;2022-08-30T10:57:23;2.72;;;1.08;;
54683;SDS011;40582;53.100;6.686;2022-08-30T10:59:50;9.05;;;1.50;;
54683;SDS011;40582;53.100;6.686;2022-08-30T11:08:13;3.55;;;1.30;;
54683;SDS011;40582;53.100;6.686;2022-08-30T11:13:23;4.75;;;2.00;;
54683;SDS011;40582;53.100;6.686;2022-08-30T11:16:04;8.00;;;1.60;;
54683;SDS011;40582;53.100;6.686;2022-08-30T11:18:32;3.58;;;1.30;;
54683;SDS011;40582;53.100;6.686;2022-08-30T11:21:32;2.03;;;1.33;;
54683;SDS011;40582;53.100;6.686;2022-08-30T11:29:34;11.07;;;1.27;;
54683;SDS011;40582;53.100;6.686;2022-08-30T11:53:09;1.92;;;1.13;;
54683;SDS011;40582;53.100;6.686;2022-08-30T11:58:35;5.68;;;1.33;;
54683;SDS011;40582;53.100;6.686;2022-08-30T12:01:13;7.03;;;1.27;;
54683;SDS011;40582;53.100;6.686;2022-08-30T12:03:52;5.13;;;1.13;;
54683;SDS011;40582;53.100;6.686;2022-08-30T12:09:04;2.38;;;1.40;;
54683;SDS011;40582;53.100;6.686;2022-08-30T12:12:03;1.88;;;1.30;;
54683;SDS011;40582;53.100;6.686;2022-08-30T12:14:47;1.92;;;1.10;;
54683;SDS011;40582;53.100;6.686;2022-08-30T12:20:43;4.75;;;1.58;;
54683;SDS011;40582;53.100;6.686;2022-08-30T12:26:12;5.80;;;1.10;;
54683;SDS011;40582;53.100;6.686;2022-08-30T12:28:38;9.40;;;1.42;;
54683;SDS011;40582;53.100;6.686;2022-08-30T12:34:04;1.88;;;1.20;;
54683;SDS011;40582;53.100;6.686;2022-08-30T12:41:35;2.13;;;1.20;;
54683;SDS011;40582;53.100;6.686;2022-08-30T12:44:01;7.82;;;1.40;;
54683;SDS011;40582;53.100;6.686;2022-08-30T12:46:27;4.00;;;1.00;;
54683;SDS011;40582;53.100;6.686;2022-08-30T12:48:54;3.20;;;1.30;;
54683;SDS011;40582;53.100;6.686;2022-08-30T12:51:28;2.17;;;1.40;;
54683;SDS011;40582;53.100;6.686;2022-08-30T12:54:01;6.28;;;1.60;;
54683;SDS011;40582;53.100;6.686;2022-08-30T13:04:43;2.10;;;1.13;;
54683;SDS011;40582;53.100;6.686;2022-08-30T13:07:11;2.60;;;1.08;;
54683;SDS011;40582;53.100;6.686;2022-08-30T13:09:49;1.48;;;1.00;;
54683;SDS011;40582;53.100;6.686;2022-08-30T13:12:24;3.38;;;1.20;;
54683;SDS011;40582;53.100;6.686;2022-08-30T13:14:52;4.95;;;1.00;;
54683;SDS011;40582;53.100;6.686;2022-08-30T13:17:32;2.60;;;1.23;;
54683;SDS011;40582;53.100;6.686;2022-08-30T13:20:00;2.28;;;0.95;;
54683;SDS011;40582;53.100;6.686;2022-08-30T13:22:32;1.17;;;0.98;;
54683;SDS011;40582;53.100;6.686;2022-08-30T13:24:59;3.40;;;1.10;;
54683;SDS011;40582;53.100;6.686;2022-08-30T13:27:25;5.32;;;0.93;;
54683;SDS011;40582;53.100;6.686;2022-08-30T13:29:52;1.73;;;1.20;;
54683;SDS011;40582;53.100;6.686;2022-08-30T13:32:18;6.85;;;1.33;;
54683;SDS011;40582;53.100;6.686;2022-08-30T13:34:45;1.17;;;1.02;;
54683;SDS011;40582;53.100;6.686;2022-08-30T13:37:15;1.77;;;0.95;;
54683;SDS011;40582;53.100;6.686;2022-08-30T13:39:43;4.82;;;1.05;;
54683;SDS011;40582;53.100;6.686;2022-08-30T13:42:09;5.07;;;1.20;;
54683;SDS011;40582;53.100;6.686;2022-08-30T13:44:35;6.50;;;1.00;;
54683;SDS011;40582;53.100;6.686;2022-08-30T13:47:01;5.25;;;1.00;;
54683;SDS011;40582;53.100;6.686;2022-08-30T13:49:28;2.05;;;1.15;;
54683;SDS011;40582;53.100;6.686;2022-08-30T13:51:55;4.97;;;1.27;;
54683;SDS011;40582;53.100;6.686;2022-08-30T13:54:21;3.78;;;1.08;;
54683;SDS011;40582;53.100;6.686;2022-08-30T13:56:49;5.72;;;1.30;;
54683;SDS011;40582;53.100;6.686;2022-08-30T13:59:16;7.20;;;1.35;;
54683;SDS011;40582;53.100;6.686;2022-08-30T14:01:43;2.72;;;1.15;;
54683;SDS011;40582;53.100;6.686;2022-08-30T14:04:08;5.45;;;1.23;;
54683;SDS011;40582;53.100;6.686;2022-08-30T14:06:34;4.10;;;1.50;;
54683;SDS011;40582;53.100;6.686;2022-08-30T14:09:00;4.72;;;1.20;;
54683;SDS011;40582;53.100;6.686;2022-08-30T14:11:28;2.60;;;0.98;;
54683;SDS011;40582;53.100;6.686;2022-08-30T14:13:54;4.82;;;1.25;;
54683;SDS011;40582;53.100;6.686;2022-08-30T14:16:20;1.77;;;1.00;;
54683;SDS011;40582;53.100;6.686;2022-08-30T14:18:45;1.73;;;1.23;;
54683;SDS011;40582;53.100;6.686;2022-08-30T14:21:11;6.72;;;1.20;;
54683;SDS011;40582;53.100;6.686;2022-08-30T14:23:37;1.67;;;1.10;;
54683;SDS011;40582;53.100;6.686;2022-08-30T14:26:02;2.63;;;1.00;;
54683;SDS011;40582;53.100;6.686;2022-08-30T14:28:35;7.07;;;1.13;;
54683;SDS011;40582;53.100;6.686;2022-08-30T14:31:01;3.72;;;1.40;;
54683;SDS011;40582;53.100;6.686;2022-08-30T14:33:26;2.03;;;1.17;;
54683;SDS011;40582;53.100;6.686;2022-08-30T14:35:52;8.65;;;1.30;;
54683;SDS011;40582;53.100;6.686;2022-08-30T14:38:18;4.05;;;0.98;;
54683;SDS011;40582;53.100;6.686;2022-08-30T14:40:43;8.43;;;1.70;;
54683;SDS011;40582;53.100;6.686;2022-08-30T14:43:09;2.70;;;1.08;;
54683;SDS011;40582;53.100;6.686;2022-08-30T14:45:38;3.47;;;1.30;;
54683;SDS011;40582;53.100;6.686;2022-08-30T14:48:04;1.02;;;0.93;;
54683;SDS011;40582;53.100;6.686;2022-08-30T14:50:36;2.60;;;1.10;;
54683;SDS011;40582;53.100;6.686;2022-08-30T14:53:03;4.88;;;1.55;;
54683;SDS011;40582;53.100;6.686;2022-08-30T14:55:30;2.28;;;1.25;;
54683;SDS011;40582;53.100;6.686;2022-08-30T14:57:58;1.17;;;1.05;;
54683;SDS011;40582;53.100;6.686;2022-08-30T15:00:24;5.55;;;1.45;;
54683;SDS011;40582;53.100;6.686;2022-08-30T15:02:50;2.20;;;1.35;;
54683;SDS011;40582;53.100;6.686;2022-08-30T15:05:16;3.63;;;1.63;;
54683;SDS011;40582;53.100;6.686;2022-08-30T15:07:43;4.78;;;1.40;;
54683;SDS011;40582;53.100;6.686;2022-08-30T15:10:12;1.73;;;1.27;;
54683;SDS011;40582;53.100;6.686;2022-08-30T15:12:39;6.65;;;1.33;;
54683;SDS011;40582;53.100;6.686;2022-08-30T15:15:06;1.90;;;1.10;;
54683;SDS011;40582;53.100;6.686;2022-08-30T15:17:32;1.20;;;1.10;;
54683;SDS011;40582;53.100;6.686;2022-08-30T15:19:58;4.55;;;1.10;;
54683;SDS011;40582;53.100;6.686;2022-08-30T15:22:23;3.70;;;1.40;;
54683;SDS011;40582;53.100;6.686;2022-08-30T15:24:49;2.50;;;1.23;;
54683;SDS011;40582;53.100;6.686;2022-08-30T15:27:15;4.50;;;1.20;;
54683;SDS011;40582;53.100;6.686;2022-08-30T15:29:40;3.35;;;1.20;;
54683;SDS011;40582;53.100;6.686;2022-08-30T15:32:06;1.52;;;1.38;;
54683;SDS011;40582;53.100;6.686;2022-08-30T15:34:32;6.10;;;1.52;;
54683;SDS011;40582;53.100;6.686;2022-08-30T15:36:58;2.22;;;0.93;;
54683;SDS011;40582;53.100;6.686;2022-08-30T15:39:24;5.07;;;1.10;;
54683;SDS011;40582;53.100;6.686;2022-08-30T15:41:51;2.25;;;1.10;;
54683;SDS011;40582;53.100;6.686;2022-08-30T15:44:17;3.92;;;1.13;;
54683;SDS011;40582;53.100;6.686;2022-08-30T15:46:43;1.67;;;1.00;;
54683;SDS011;40582;53.100;6.686;2022-08-30T15:49:11;3.05;;;1.17;;
54683;SDS011;40582;53.100;6.686;2022-08-30T15:51:40;3.15;;;1.15;;
54683;SDS011;40582;53.100;6.686;2022-08-30T15:54:08;3.20;;;1.30;;
54683;SDS011;40582;53.100;6.686;2022-08-30T15:56:35;5.05;;;1.30;;
54683;SDS011;40582;53.100;6.686;2022-08-30T15:59:01;2.45;;;1.55;;
54683;SDS011;40582;53.100;6.686;2022-08-30T16:01:26;2.20;;;1.33;;
54683;SDS011;40582;53.100;6.686;2022-08-30T16:03:52;0.98;;;0.98;;
54683;SDS011;40582;53.100;6.686;2022-08-30T16:06:21;2.35;;;1.33;;
54683;SDS011;40582;53.100;6.686;2022-08-30T16:08:49;1.55;;;0.98;;
54683;SDS011;40582;53.100;6.686;2022-08-30T16:11:16;2.45;;;1.20;;
54683;SDS011;40582;53.100;6.686;2022-08-30T16:13:43;4.97;;;1.70;;
54683;SDS011;40582;53.100;6.686;2022-08-30T16:16:10;2.22;;;1.33;;
54683;SDS011;40582;53.100;6.686;2022-08-30T16:18:36;5.68;;;1.98;;
54683;SDS011;40582;53.100;6.686;2022-08-30T16:23:33;8.68;;;1.63;;
54683;SDS011;40582;53.100;6.686;2022-08-30T16:26:00;8.90;;;1.60;;
54683;SDS011;40582;53.100;6.686;2022-08-30T16:28:27;5.30;;;1.70;;
54683;SDS011;40582;53.100;6.686;2022-08-30T16:30:53;4.15;;;1.90;;
54683;SDS011;40582;53.100;6.686;2022-08-30T16:33:19;5.97;;;1.85;;
54683;SDS011;40582;53.100;6.686;2022-08-30T16:35:48;11.43;;;2.05;;